Welcome to the New NWS' Forecast!
Most changes are behind the scenes, but click here for differences you might notice.

Terminal Aerodrome Forecast (TAF)

Issued by National Weather Service (NWS)

                            
652 
FTUS42 KKEY 121506 AAB
TAFEYW
TAF AMD
KEYW 121506Z 1215/1312 VRB03KT P6SM FEW025
     FM121800 16004KT P6SM VCTS SCT025CB SCT050 BKN100
     FM122000 17006KT P6SM FEW025 SCT120=